Time;durP1;ratioP1;P1;durP2;ratioP2;P2;SDS_P1;SDS_P2;PMS_P1;PMS_P2;Temp;Humidity;BMP_temperature;BMP_pressure;BME280_temperature;BME280_humidity;BME280_pressure;Samples;Min_cycle;Max_cycle;Signal;HPM_P1;HPM_P2
2024/01/25 00:02:06;;;;;;;24.10;3.25;;;;;;;;;;5067828;28;20427;-60
2024/01/25 00:04:32;;;;;;;18.38;3.58;;;;;;;;;;5072281;28;20032;-60
2024/01/25 00:06:58;;;;;;;17.70;4.07;;;;;;;;;;5052757;28;20028;-56
2024/01/25 00:09:24;;;;;;;18.10;3.20;;;;;;;;;;5069605;28;20166;-61
2024/01/25 00:11:50;;;;;;;21.65;3.85;;;;;;;;;;5071494;28;20036;-59
2024/01/25 00:14:16;;;;;;;21.90;3.83;;;;;;;;;;5068403;28;20072;-61
2024/01/25 00:16:42;;;;;;;26.20;4.47;;;;;;;;;;5065370;28;20029;-61
2024/01/25 00:19:08;;;;;;;22.42;4.05;;;;;;;;;;5071890;28;20162;-61
2024/01/25 00:21:34;;;;;;;23.27;3.22;;;;;;;;;;5072342;28;20099;-61
2024/01/25 00:24:00;;;;;;;22.50;4.28;;;;;;;;;;5068482;28;20078;-59
2024/01/25 00:26:26;;;;;;;17.42;3.15;;;;;;;;;;5055593;28;20033;-59
2024/01/25 00:28:52;;;;;;;15.82;3.20;;;;;;;;;;5066583;28;20027;-60
2024/01/25 00:31:18;;;;;;;24.25;3.80;;;;;;;;;;5072122;28;20111;-60
2024/01/25 00:33:44;;;;;;;21.45;3.83;;;;;;;;;;5062716;28;20033;-60
2024/01/25 00:36:10;;;;;;;17.85;2.92;;;;;;;;;;5058600;28;20471;-61
2024/01/25 00:38:36;;;;;;;22.42;4.88;;;;;;;;;;5052892;28;20033;-60
2024/01/25 00:41:03;;;;;;;13.50;2.75;;;;;;;;;;5072565;28;20020;-60
2024/01/25 00:43:29;;;;;;;20.65;3.25;;;;;;;;;;5061557;28;20556;-61
2024/01/25 00:45:55;;;;;;;17.90;3.08;;;;;;;;;;5060352;28;20033;-60
2024/01/25 00:48:21;;;;;;;13.73;3.15;;;;;;;;;;5070502;28;20039;-56
2024/01/25 00:50:47;;;;;;;16.08;3.45;;;;;;;;;;5071265;28;20506;-60
2024/01/25 00:53:13;;;;;;;17.02;3.85;;;;;;;;;;5070981;28;20041;-59
2024/01/25 00:55:41;;;;;;;21.17;3.10;;;;;;;;;;5071272;28;20038;-49
2024/01/25 00:58:07;;;;;;;24.50;3.70;;;;;;;;;;5066976;28;20029;-50
2024/01/25 01:00:33;;;;;;;17.67;2.65;;;;;;;;;;5070681;28;20034;-52
2024/01/25 01:03:00;;;;;;;22.63;3.70;;;;;;;;;;5064384;28;20107;-53
2024/01/25 01:05:26;;;;;;;16.33;2.88;;;;;;;;;;5062671;28;20046;-50
2024/01/25 01:07:52;;;;;;;19.25;3.00;;;;;;;;;;5065505;28;20040;-49
2024/01/25 01:10:18;;;;;;;27.60;3.58;;;;;;;;;;5053085;28;20086;-53
2024/01/25 01:12:44;;;;;;;15.88;3.50;;;;;;;;;;5067521;28;20025;-52
2024/01/25 01:15:10;;;;;;;14.65;2.50;;;;;;;;;;5070588;28;20063;-51
2024/01/25 01:17:36;;;;;;;13.93;3.08;;;;;;;;;;5072017;28;20025;-49
2024/01/25 01:20:02;;;;;;;18.52;3.33;;;;;;;;;;5071290;28;20030;-48
2024/01/25 01:22:28;;;;;;;16.20;3.78;;;;;;;;;;5068623;28;20545;-50
2024/01/25 01:24:54;;;;;;;18.63;3.20;;;;;;;;;;5065683;28;20041;-52
2024/01/25 01:27:21;;;;;;;26.83;3.42;;;;;;;;;;5066755;28;20498;-50
2024/01/25 01:29:47;;;;;;;11.50;2.90;;;;;;;;;;5066711;28;20486;-51
2024/01/25 01:32:13;;;;;;;19.40;2.65;;;;;;;;;;5061943;28;20103;-49
2024/01/25 01:34:39;;;;;;;19.35;2.88;;;;;;;;;;5070345;28;20040;-48
2024/01/25 01:37:05;;;;;;;24.42;4.10;;;;;;;;;;5058010;28;20478;-50
2024/01/25 01:39:31;;;;;;;13.05;2.67;;;;;;;;;;5071398;28;20029;-52
2024/01/25 01:41:57;;;;;;;22.55;2.95;;;;;;;;;;5069798;28;20040;-52
2024/01/25 01:44:23;;;;;;;24.52;3.08;;;;;;;;;;5055270;28;20478;-48
2024/01/25 01:46:49;;;;;;;28.80;3.75;;;;;;;;;;5060604;28;20055;-53
2024/01/25 01:49:16;;;;;;;17.73;2.70;;;;;;;;;;5056082;28;20383;-52
2024/01/25 01:51:45;;;;;;;15.32;3.47;;;;;;;;;;5058290;28;20087;-51
2024/01/25 01:54:11;;;;;;;21.65;3.55;;;;;;;;;;5067737;28;20024;-49
2024/01/25 01:56:39;;;;;;;11.90;2.63;;;;;;;;;;5070595;28;20467;-59
2024/01/25 01:59:07;;;;;;;22.30;3.60;;;;;;;;;;5069258;28;20029;-60
2024/01/25 02:01:33;;;;;;;19.83;3.40;;;;;;;;;;5062314;28;20501;-52
2024/01/25 02:03:59;;;;;;;21.98;2.83;;;;;;;;;;5068848;28;20537;-50
2024/01/25 02:06:26;;;;;;;19.77;3.10;;;;;;;;;;5068752;28;20089;-50
2024/01/25 02:08:53;;;;;;;18.70;3.55;;;;;;;;;;5069679;28;20094;-52
2024/01/25 02:11:19;;;;;;;28.10;3.58;;;;;;;;;;5068570;28;20028;-50
2024/01/25 02:13:47;;;;;;;23.77;4.03;;;;;;;;;;5067136;28;20156;-50
2024/01/25 02:16:14;;;;;;;15.93;3.15;;;;;;;;;;5056753;28;20090;-50
2024/01/25 02:18:41;;;;;;;14.80;3.40;;;;;;;;;;5070892;28;20542;-50
2024/01/25 02:21:07;;;;;;;23.98;2.85;;;;;;;;;;5065665;28;20106;-50
2024/01/25 02:23:33;;;;;;;27.42;3.33;;;;;;;;;;5069347;28;20025;-51
2024/01/25 02:25:59;;;;;;;20.55;2.95;;;;;;;;;;5059840;28;20033;-50
2024/01/25 02:28:25;;;;;;;28.92;3.90;;;;;;;;;;5066459;28;20115;-49
2024/01/25 02:30:51;;;;;;;13.82;3.20;;;;;;;;;;5058062;28;20032;-53
2024/01/25 02:33:17;;;;;;;20.50;4.28;;;;;;;;;;5058198;28;20040;-50
2024/01/25 02:35:43;;;;;;;24.48;3.70;;;;;;;;;;5071299;28;20448;-50
2024/01/25 02:38:09;;;;;;;18.45;3.55;;;;;;;;;;5075224;28;20036;-50
2024/01/25 02:40:35;;;;;;;18.23;3.55;;;;;;;;;;5072195;28;20063;-51
2024/01/25 02:43:01;;;;;;;19.20;4.10;;;;;;;;;;5071151;28;20087;-49
2024/01/25 02:45:27;;;;;;;22.00;3.45;;;;;;;;;;5071039;28;20387;-49
2024/01/25 02:47:53;;;;;;;26.15;3.30;;;;;;;;;;5063918;28;20037;-53
2024/01/25 02:50:19;;;;;;;27.45;3.60;;;;;;;;;;5068443;28;20033;-51
2024/01/25 02:52:45;;;;;;;16.42;3.17;;;;;;;;;;5061830;28;20040;-52
2024/01/25 02:55:11;;;;;;;32.88;3.67;;;;;;;;;;5072679;28;20041;-53
2024/01/25 02:57:37;;;;;;;20.08;3.33;;;;;;;;;;5075033;28;20052;-51
2024/01/25 03:00:04;;;;;;;22.13;3.88;;;;;;;;;;5070251;28;20516;-51
2024/01/25 03:02:31;;;;;;;18.52;2.55;;;;;;;;;;5071894;28;20478;-50
2024/01/25 03:04:57;;;;;;;21.83;2.92;;;;;;;;;;5073816;28;20036;-52
2024/01/25 03:07:23;;;;;;;16.30;3.58;;;;;;;;;;5067954;28;20032;-59
2024/01/25 03:09:49;;;;;;;18.90;3.38;;;;;;;;;;5064475;28;20055;-60
2024/01/25 03:12:15;;;;;;;20.98;2.97;;;;;;;;;;5073173;28;20032;-60
2024/01/25 03:14:41;;;;;;;19.92;3.38;;;;;;;;;;5054947;28;20048;-60
2024/01/25 03:17:06;;;;;;;23.85;5.18;;;;;;;;;;5071542;28;20075;-60
2024/01/25 03:19:33;;;;;;;18.00;3.05;;;;;;;;;;5074222;28;20495;-60
2024/01/25 03:22:01;;;;;;;20.40;3.08;;;;;;;;;;5073056;28;20032;-60
2024/01/25 03:24:27;;;;;;;21.00;4.82;;;;;;;;;;5074105;28;20077;-59
2024/01/25 03:26:53;;;;;;;13.50;2.92;;;;;;;;;;5073744;28;20028;-58
2024/01/25 03:29:19;;;;;;;17.92;3.28;;;;;;;;;;5065241;28;20474;-60
2024/01/25 03:31:45;;;;;;;24.77;3.25;;;;;;;;;;5051540;28;20031;-59
2024/01/25 03:34:11;;;;;;;20.30;3.45;;;;;;;;;;5073261;28;20099;-60
2024/01/25 03:36:40;;;;;;;27.92;3.95;;;;;;;;;;5068347;28;20063;-60
2024/01/25 03:39:07;;;;;;;16.38;3.30;;;;;;;;;;5072600;28;20107;-59
2024/01/25 03:41:33;;;;;;;23.58;4.60;;;;;;;;;;5061966;28;20070;-59
2024/01/25 03:43:59;;;;;;;24.27;3.90;;;;;;;;;;5062010;28;20464;-60
2024/01/25 03:46:25;;;;;;;19.38;3.10;;;;;;;;;;5068764;28;20025;-60
2024/01/25 03:48:51;;;;;;;16.67;3.47;;;;;;;;;;5071686;28;20418;-60
2024/01/25 03:51:17;;;;;;;22.75;3.33;;;;;;;;;;5070048;28;20054;-61
2024/01/25 03:53:43;;;;;;;30.25;4.20;;;;;;;;;;5055399;28;20098;-60
2024/01/25 03:56:17;;;;;;;27.67;4.28;;;;;;;;;;5068782;28;20024;-60
2024/01/25 03:58:43;;;;;;;25.38;3.42;;;;;;;;;;5073276;28;20028;-59
2024/01/25 04:01:09;;;;;;;25.33;3.97;;;;;;;;;;5073236;28;20025;-60
2024/01/25 04:03:36;;;;;;;18.90;3.50;;;;;;;;;;5062809;28;20447;-59
2024/01/25 04:06:02;;;;;;;17.50;3.17;;;;;;;;;;5073346;28;20035;-59
2024/01/25 04:08:28;;;;;;;13.43;2.55;;;;;;;;;;5064097;28;20033;-60
2024/01/25 04:10:53;;;;;;;23.73;3.47;;;;;;;;;;5072725;28;20047;-61
2024/01/25 04:13:19;;;;;;;19.63;3.03;;;;;;;;;;5071204;28;20035;-60
2024/01/25 04:15:45;;;;;;;32.67;3.97;;;;;;;;;;5058397;28;20111;-52
2024/01/25 04:18:11;;;;;;;24.77;3.65;;;;;;;;;;5054429;28;20029;-49
2024/01/25 04:20:37;;;;;;;21.70;4.10;;;;;;;;;;5066596;28;20033;-50
2024/01/25 04:23:03;;;;;;;25.17;3.85;;;;;;;;;;5070762;28;20017;-50
2024/01/25 04:25:29;;;;;;;14.32;3.72;;;;;;;;;;5071173;28;20033;-50
2024/01/25 04:27:55;;;;;;;26.00;2.88;;;;;;;;;;5068762;28;20036;-51
2024/01/25 04:30:21;;;;;;;17.92;2.80;;;;;;;;;;5072292;28;20043;-53
2024/01/25 04:32:47;;;;;;;25.70;3.53;;;;;;;;;;5073093;28;20020;-51
2024/01/25 04:35:13;;;;;;;20.08;3.33;;;;;;;;;;5072307;28;20024;-49
2024/01/25 04:37:39;;;;;;;26.27;3.58;;;;;;;;;;5071755;28;20448;-52
2024/01/25 04:40:06;;;;;;;19.38;3.15;;;;;;;;;;5070587;28;20020;-52
2024/01/25 04:42:32;;;;;;;30.45;4.55;;;;;;;;;;5059648;28;20494;-50
2024/01/25 04:44:58;;;;;;;17.52;2.83;;;;;;;;;;5065020;28;20111;-49
2024/01/25 04:47:24;;;;;;;24.08;3.45;;;;;;;;;;5056744;28;20528;-51
2024/01/25 04:49:50;;;;;;;14.85;2.85;;;;;;;;;;5068626;28;20479;-49
2024/01/25 04:52:16;;;;;;;20.70;3.20;;;;;;;;;;5059360;28;20082;-52
2024/01/25 04:54:42;;;;;;;18.88;3.33;;;;;;;;;;5070232;28;20028;-50
2024/01/25 04:57:08;;;;;;;16.30;3.35;;;;;;;;;;5066925;28;20043;-52
2024/01/25 04:59:34;;;;;;;22.40;3.30;;;;;;;;;;5062515;28;20025;-49
2024/01/25 05:02:00;;;;;;;26.55;3.10;;;;;;;;;;5060395;28;20029;-54
2024/01/25 05:04:27;;;;;;;22.33;3.55;;;;;;;;;;5057197;28;20078;-51
2024/01/25 05:06:53;;;;;;;18.52;3.15;;;;;;;;;;5065764;28;20489;-51
2024/01/25 05:09:19;;;;;;;23.35;4.07;;;;;;;;;;5070332;28;20024;-51
2024/01/25 05:11:45;;;;;;;15.82;4.03;;;;;;;;;;5070094;28;20060;-51
2024/01/25 05:14:11;;;;;;;22.77;4.22;;;;;;;;;;5065130;28;20502;-53
2024/01/25 05:16:37;;;;;;;16.38;4.18;;;;;;;;;;5070469;28;20482;-50
2024/01/25 05:19:03;;;;;;;22.98;3.40;;;;;;;;;;5071669;28;20028;-50
2024/01/25 05:21:29;;;;;;;16.40;3.63;;;;;;;;;;5070582;28;20048;-48
2024/01/25 05:23:55;;;;;;;18.05;3.00;;;;;;;;;;5070492;28;20027;-53
2024/01/25 05:26:21;;;;;;;22.30;3.17;;;;;;;;;;5063510;28;20025;-50
2024/01/25 05:28:47;;;;;;;20.50;3.33;;;;;;;;;;5059627;28;20029;-53
2024/01/25 05:31:13;;;;;;;21.30;4.20;;;;;;;;;;5043033;28;20470;-53
2024/01/25 05:33:42;;;;;;;20.25;3.35;;;;;;;;;;5069041;28;20028;-51
2024/01/25 05:36:09;;;;;;;14.38;3.75;;;;;;;;;;5067784;28;20040;-53
2024/01/25 05:38:35;;;;;;;31.08;3.60;;;;;;;;;;5066712;28;20555;-53
2024/01/25 05:41:02;;;;;;;19.58;3.60;;;;;;;;;;5067730;28;20031;-50
2024/01/25 05:43:28;;;;;;;20.42;3.63;;;;;;;;;;5069477;28;20012;-52
2024/01/25 05:45:54;;;;;;;26.80;3.95;;;;;;;;;;5068311;28;20112;-52
2024/01/25 05:48:20;;;;;;;26.70;2.92;;;;;;;;;;5069342;28;20981;-53
2024/01/25 05:50:45;;;;;;;13.40;2.97;;;;;;;;;;5058077;28;20028;-51
2024/01/25 05:53:12;;;;;;;17.63;3.22;;;;;;;;;;5063757;28;20043;-53
2024/01/25 05:55:38;;;;;;;17.25;2.67;;;;;;;;;;5066956;28;20037;-50
2024/01/25 05:58:04;;;;;;;15.05;2.60;;;;;;;;;;5070830;28;20641;-51
2024/01/25 06:00:30;;;;;;;12.05;3.05;;;;;;;;;;5067212;28;20513;-50
2024/01/25 06:02:56;;;;;;;20.25;3.13;;;;;;;;;;5068330;28;20070;-52
2024/01/25 06:05:21;;;;;;;22.65;3.50;;;;;;;;;;5070831;28;20024;-50
2024/01/25 06:07:49;;;;;;;16.75;3.40;;;;;;;;;;5068602;28;20030;-54
2024/01/25 06:10:15;;;;;;;15.32;2.15;;;;;;;;;;5065213;28;20060;-53
2024/01/25 06:12:41;;;;;;;21.63;3.55;;;;;;;;;;5066006;28;20067;-49
2024/01/25 06:15:07;;;;;;;19.73;3.75;;;;;;;;;;5071301;28;20036;-52
2024/01/25 06:17:33;;;;;;;19.50;3.00;;;;;;;;;;5068360;28;20109;-50
2024/01/25 06:19:59;;;;;;;14.57;2.45;;;;;;;;;;5051741;28;20466;-49
2024/01/25 06:22:25;;;;;;;27.52;4.50;;;;;;;;;;5061539;28;20021;-51
2024/01/25 06:24:51;;;;;;;22.98;3.17;;;;;;;;;;5060229;28;20040;-53
2024/01/25 06:27:17;;;;;;;18.48;2.67;;;;;;;;;;5068122;28;20033;-55
2024/01/25 06:29:43;;;;;;;25.25;3.30;;;;;;;;;;5075136;28;20531;-50
2024/01/25 06:32:10;;;;;;;22.27;3.25;;;;;;;;;;5075165;28;20028;-50
2024/01/25 06:34:36;;;;;;;19.33;3.72;;;;;;;;;;5067227;28;20206;-51
2024/01/25 06:37:02;;;;;;;20.05;2.95;;;;;;;;;;5064856;28;20021;-59
2024/01/25 06:39:29;;;;;;;17.23;2.92;;;;;;;;;;5068633;28;20036;-59
2024/01/25 06:41:55;;;;;;;15.98;2.15;;;;;;;;;;5069515;28;20591;-60
2024/01/25 06:44:20;;;;;;;17.58;3.03;;;;;;;;;;5070760;28;20044;-60
2024/01/25 06:46:46;;;;;;;26.02;3.60;;;;;;;;;;5072102;28;20028;-60
2024/01/25 06:49:13;;;;;;;20.70;3.47;;;;;;;;;;5073710;28;20032;-59
2024/01/25 06:51:39;;;;;;;19.38;2.90;;;;;;;;;;5073031;28;20479;-60
2024/01/25 06:54:05;;;;;;;10.77;2.72;;;;;;;;;;5072713;28;20021;-59
2024/01/25 06:56:31;;;;;;;19.48;3.00;;;;;;;;;;5074371;28;20119;-60
2024/01/25 06:58:57;;;;;;;19.27;3.75;;;;;;;;;;5074152;28;20028;-60
2024/01/25 07:01:24;;;;;;;18.02;3.17;;;;;;;;;;5073168;28;20429;-59
2024/01/25 07:03:53;;;;;;;18.92;3.10;;;;;;;;;;5073503;28;20036;-60
2024/01/25 07:06:19;;;;;;;22.73;3.63;;;;;;;;;;5073958;28;20046;-60
2024/01/25 07:08:45;;;;;;;18.17;3.22;;;;;;;;;;5071118;28;20064;-60
2024/01/25 07:11:11;;;;;;;13.82;2.60;;;;;;;;;;5070931;28;20035;-59
2024/01/25 07:13:37;;;;;;;26.25;3.22;;;;;;;;;;5071145;28;20071;-58
2024/01/25 07:16:03;;;;;;;26.52;3.67;;;;;;;;;;5062302;28;20108;-60
2024/01/25 07:18:29;;;;;;;22.23;4.13;;;;;;;;;;5071892;28;20108;-60
2024/01/25 07:20:55;;;;;;;17.42;2.92;;;;;;;;;;5072651;28;20051;-60
2024/01/25 07:23:22;;;;;;;15.60;2.67;;;;;;;;;;5071556;28;20358;-60
2024/01/25 07:25:48;;;;;;;16.23;2.50;;;;;;;;;;5072265;28;20044;-60
2024/01/25 07:28:14;;;;;;;25.05;3.47;;;;;;;;;;5065785;28;20033;-60
2024/01/25 07:30:40;;;;;;;16.33;2.95;;;;;;;;;;5060984;28;20032;-60
2024/01/25 07:33:06;;;;;;;15.63;2.53;;;;;;;;;;5072555;28;20032;-59
2024/01/25 07:35:32;;;;;;;24.73;3.15;;;;;;;;;;5071761;28;20026;-59
2024/01/25 07:37:58;;;;;;;17.38;2.78;;;;;;;;;;5070850;28;20512;-59
2024/01/25 07:40:24;;;;;;;18.48;2.95;;;;;;;;;;5071812;28;20021;-60
2024/01/25 07:42:50;;;;;;;20.00;3.30;;;;;;;;;;5052626;28;20021;-60
2024/01/25 07:45:16;;;;;;;20.05;3.10;;;;;;;;;;5071483;28;20017;-60
2024/01/25 07:47:43;;;;;;;16.77;2.88;;;;;;;;;;5072104;28;20131;-53
2024/01/25 07:50:10;;;;;;;21.05;3.03;;;;;;;;;;5067207;28;20037;-50
2024/01/25 07:52:36;;;;;;;13.90;2.50;;;;;;;;;;5068286;28;20363;-50
2024/01/25 07:55:02;;;;;;;20.88;3.58;;;;;;;;;;5069716;28;20036;-51
2024/01/25 07:57:28;;;;;;;20.92;3.22;;;;;;;;;;5067206;28;20027;-49
2024/01/25 07:59:53;;;;;;;15.38;2.80;;;;;;;;;;5071862;28;20462;-51
2024/01/25 08:02:19;;;;;;;26.83;3.30;;;;;;;;;;5053817;28;20375;-51
2024/01/25 08:04:45;;;;;;;20.77;3.35;;;;;;;;;;5071465;28;20090;-52
2024/01/25 08:07:11;;;;;;;15.68;2.83;;;;;;;;;;5071710;28;20842;-50
2024/01/25 08:09:37;;;;;;;24.10;2.55;;;;;;;;;;5071207;28;20041;-51
2024/01/25 08:12:03;;;;;;;26.05;3.30;;;;;;;;;;5066017;28;20028;-50
2024/01/25 08:14:29;;;;;;;19.17;3.08;;;;;;;;;;5037275;28;983684;-51
2024/01/25 08:16:55;;;;;;;21.55;3.78;;;;;;;;;;5071544;28;20020;-52
2024/01/25 08:19:21;;;;;;;12.25;2.63;;;;;;;;;;5071239;28;20031;-52
2024/01/25 08:21:47;;;;;;;14.75;2.92;;;;;;;;;;5070723;28;20754;-50
2024/01/25 08:24:13;;;;;;;19.13;2.88;;;;;;;;;;5072232;28;20024;-52
2024/01/25 08:26:39;;;;;;;18.13;4.43;;;;;;;;;;5071878;28;20035;-51
2024/01/25 08:29:05;;;;;;;29.48;2.95;;;;;;;;;;5071857;28;20035;-53
2024/01/25 08:31:31;;;;;;;16.60;3.33;;;;;;;;;;5071429;28;20394;-50
2024/01/25 08:33:58;;;;;;;18.90;2.55;;;;;;;;;;5070712;28;20024;-50
2024/01/25 08:36:24;;;;;;;19.98;3.13;;;;;;;;;;5071947;28;20466;-51
2024/01/25 08:38:50;;;;;;;12.88;3.33;;;;;;;;;;5072210;28;20063;-52
2024/01/25 08:41:16;;;;;;;17.98;3.05;;;;;;;;;;5069373;28;20556;-52
2024/01/25 08:43:42;;;;;;;17.52;3.13;;;;;;;;;;5068537;28;20025;-50
2024/01/25 08:46:08;;;;;;;16.30;2.88;;;;;;;;;;5071777;28;20028;-53
2024/01/25 08:48:34;;;;;;;31.50;3.63;;;;;;;;;;5071658;28;20112;-53
2024/01/25 08:51:01;;;;;;;17.98;2.78;;;;;;;;;;5071793;28;20029;-54
2024/01/25 08:53:27;;;;;;;17.58;2.67;;;;;;;;;;5071179;28;20038;-51
2024/01/25 08:55:56;;;;;;;11.05;2.72;;;;;;;;;;5071078;28;20037;-50
2024/01/25 08:58:22;;;;;;;20.60;2.75;;;;;;;;;;5071064;28;20029;-51
2024/01/25 09:00:48;;;;;;;23.02;3.42;;;;;;;;;;5071633;28;20096;-52
2024/01/25 09:03:17;;;;;;;14.63;3.83;;;;;;;;;;5071284;28;20024;-51
2024/01/25 09:05:46;;;;;;;17.42;3.45;;;;;;;;;;5071752;28;20416;-51
2024/01/25 09:08:15;;;;;;;15.23;2.67;;;;;;;;;;5071355;28;20029;-49
2024/01/25 09:10:42;;;;;;;13.88;2.70;;;;;;;;;;5070231;28;20462;-49
2024/01/25 09:13:08;;;;;;;18.02;3.35;;;;;;;;;;5070947;28;20037;-50
2024/01/25 09:15:34;;;;;;;15.57;2.95;;;;;;;;;;5070526;28;20039;-53
2024/01/25 09:18:00;;;;;;;17.17;2.55;;;;;;;;;;5070844;28;20025;-49
2024/01/25 09:20:26;;;;;;;23.27;3.22;;;;;;;;;;5071295;28;20478;-49
2024/01/25 09:22:55;;;;;;;18.45;2.35;;;;;;;;;;5071067;28;20029;-52
2024/01/25 09:25:22;;;;;;;14.43;2.53;;;;;;;;;;5068036;28;20074;-52
2024/01/25 09:27:48;;;;;;;17.50;3.10;;;;;;;;;;5052296;28;20036;-53
2024/01/25 09:30:14;;;;;;;12.05;2.47;;;;;;;;;;5070179;28;20021;-51
2024/01/25 09:32:40;;;;;;;17.38;2.70;;;;;;;;;;5070160;28;20024;-52
2024/01/25 09:35:06;;;;;;;14.23;2.42;;;;;;;;;;5070620;28;20038;-51
2024/01/25 09:37:32;;;;;;;17.33;2.20;;;;;;;;;;5070817;28;20498;-49
2024/01/25 09:40:03;;;;;;;20.27;3.90;;;;;;;;;;5071290;28;20017;-50
2024/01/25 09:42:29;;;;;;;19.80;2.92;;;;;;;;;;5070745;28;20273;-52
2024/01/25 09:44:55;;;;;;;12.35;2.55;;;;;;;;;;5070280;28;20492;-49
2024/01/25 09:47:22;;;;;;;16.33;2.83;;;;;;;;;;5071002;28;20032;-50
2024/01/25 09:49:48;;;;;;;18.83;3.03;;;;;;;;;;5071500;28;20121;-48
2024/01/25 09:52:15;;;;;;;13.32;2.22;;;;;;;;;;5071053;28;20498;-48
2024/01/25 09:54:41;;;;;;;14.32;3.00;;;;;;;;;;5069071;28;20094;-50
2024/01/25 09:57:10;;;;;;;21.77;3.20;;;;;;;;;;5048644;28;20440;-50
2024/01/25 09:59:36;;;;;;;24.65;2.97;;;;;;;;;;5052249;28;20021;-51
2024/01/25 10:02:04;;;;;;;19.75;2.50;;;;;;;;;;5066919;28;20054;-51
2024/01/25 10:04:29;;;;;;;13.00;2.25;;;;;;;;;;5053038;28;20037;-52
2024/01/25 10:06:56;;;;;;;20.77;3.00;;;;;;;;;;5064941;28;20047;-50
2024/01/25 10:09:23;;;;;;;13.88;2.83;;;;;;;;;;5071068;28;20389;-48
2024/01/25 10:11:49;;;;;;;18.60;3.17;;;;;;;;;;5063773;28;20029;-49
2024/01/25 10:14:15;;;;;;;12.60;2.83;;;;;;;;;;5070300;28;20131;-50
2024/01/25 10:16:41;;;;;;;15.98;2.17;;;;;;;;;;5070902;28;20029;-51
2024/01/25 10:19:10;;;;;;;22.95;2.88;;;;;;;;;;5066829;28;20494;-49
2024/01/25 10:21:36;;;;;;;16.05;2.42;;;;;;;;;;5064970;28;20025;-49
2024/01/25 10:24:03;;;;;;;16.15;3.67;;;;;;;;;;5070646;28;20051;-51
2024/01/25 10:26:29;;;;;;;19.60;2.97;;;;;;;;;;5069784;28;20497;-52
2024/01/25 10:28:55;;;;;;;21.15;3.97;;;;;;;;;;5059369;28;20465;-49
2024/01/25 10:31:25;;;;;;;13.07;2.63;;;;;;;;;;5070174;28;20031;-51
2024/01/25 10:33:55;;;;;;;11.73;2.58;;;;;;;;;;5060564;28;20032;-49
2024/01/25 10:36:22;;;;;;;19.58;3.20;;;;;;;;;;5070263;28;20339;-52
2024/01/25 10:38:53;;;;;;;17.73;2.78;;;;;;;;;;5065085;28;20028;-52
2024/01/25 10:41:20;;;;;;;12.27;2.65;;;;;;;;;;5068647;28;20062;-52
2024/01/25 10:43:46;;;;;;;16.02;2.78;;;;;;;;;;5059388;28;20029;-54
2024/01/25 10:46:12;;;;;;;19.15;3.03;;;;;;;;;;5070511;28;20044;-53
2024/01/25 10:48:38;;;;;;;11.85;2.22;;;;;;;;;;5070593;28;20121;-51
2024/01/25 10:51:05;;;;;;;18.63;2.55;;;;;;;;;;5070492;28;20474;-48
2024/01/25 10:53:32;;;;;;;16.05;3.72;;;;;;;;;;5069733;28;20056;-52
2024/01/25 10:55:59;;;;;;;22.63;2.72;;;;;;;;;;5069211;28;20021;-51
2024/01/25 10:58:25;;;;;;;18.08;3.08;;;;;;;;;;5072799;28;20058;-53
2024/01/25 11:00:58;;;;;;;12.38;2.25;;;;;;;;;;5074229;28;20024;-52
2024/01/25 11:03:30;;;;;;;19.90;2.80;;;;;;;;;;5072074;28;20021;-50
2024/01/25 11:06:08;;;;;;;14.65;3.45;;;;;;;;;;5074056;28;20103;-53
2024/01/25 11:08:34;;;;;;;10.65;2.38;;;;;;;;;;5073812;28;20039;-49
2024/01/25 11:11:00;;;;;;;21.98;3.50;;;;;;;;;;5073196;28;20092;-51
2024/01/25 11:13:29;;;;;;;13.25;2.47;;;;;;;;;;5067003;28;20513;-52
2024/01/25 11:15:55;;;;;;;14.40;2.85;;;;;;;;;;5074349;28;20048;-54
2024/01/25 11:18:25;;;;;;;16.88;3.35;;;;;;;;;;5073519;28;20116;-54
2024/01/25 11:20:52;;;;;;;12.55;2.80;;;;;;;;;;5073505;28;20035;-53
2024/01/25 11:23:18;;;;;;;17.80;3.30;;;;;;;;;;5073042;28;20103;-52
2024/01/25 11:25:48;;;;;;;22.38;3.30;;;;;;;;;;5072284;28;20124;-53
2024/01/25 11:28:16;;;;;;;14.90;2.78;;;;;;;;;;5066182;28;20032;-49
2024/01/25 11:30:42;;;;;;;14.05;1.95;;;;;;;;;;5073539;28;20033;-54
2024/01/25 11:33:09;;;;;;;17.10;2.83;;;;;;;;;;5073314;28;20033;-52
2024/01/25 11:35:35;;;;;;;14.35;2.33;;;;;;;;;;5065006;28;20033;-50
2024/01/25 11:38:01;;;;;;;13.73;2.63;;;;;;;;;;5069692;28;20024;-52
2024/01/25 11:40:31;;;;;;;13.73;3.25;;;;;;;;;;5072869;28;20378;-53
2024/01/25 11:42:57;;;;;;;11.60;2.60;;;;;;;;;;5073216;28;20031;-51
2024/01/25 11:45:23;;;;;;;12.40;2.60;;;;;;;;;;5072862;28;20060;-50
2024/01/25 11:47:50;;;;;;;13.63;2.53;;;;;;;;;;5072583;28;20027;-51
2024/01/25 11:50:16;;;;;;;17.77;2.22;;;;;;;;;;5073445;28;20110;-51
2024/01/25 11:52:42;;;;;;;13.93;1.90;;;;;;;;;;5061863;28;20078;-53
2024/01/25 11:55:09;;;;;;;10.20;2.35;;;;;;;;;;5072451;28;20074;-54
2024/01/25 11:57:43;;;;;;;10.57;2.00;;;;;;;;;;5072260;28;20055;-54
2024/01/25 12:00:10;;;;;;;8.55;2.08;;;;;;;;;;5065586;28;20123;-53
2024/01/25 12:02:37;;;;;;;11.07;2.00;;;;;;;;;;5072440;28;20028;-53
2024/01/25 12:05:04;;;;;;;19.70;2.53;;;;;;;;;;5071267;28;20115;-53
2024/01/25 12:07:33;;;;;;;13.50;1.90;;;;;;;;;;5064455;28;20032;-53
2024/01/25 12:10:06;;;;;;;14.10;1.95;;;;;;;;;;5069804;28;20032;-55
2024/01/25 12:12:32;;;;;;;14.93;2.25;;;;;;;;;;5057487;28;20103;-52
2024/01/25 12:14:58;;;;;;;14.25;2.60;;;;;;;;;;5051718;28;20132;-53
2024/01/25 12:17:26;;;;;;;17.58;2.70;;;;;;;;;;5052980;28;20021;-52
2024/01/25 12:19:54;;;;;;;15.52;2.83;;;;;;;;;;5051958;28;20029;-53
2024/01/25 12:22:21;;;;;;;17.50;2.17;;;;;;;;;;5052623;28;20094;-54
2024/01/25 12:24:48;;;;;;;23.15;2.88;;;;;;;;;;5052283;28;20027;-50
2024/01/25 12:27:15;;;;;;;14.57;2.35;;;;;;;;;;5052485;28;20013;-60
2024/01/25 12:29:43;;;;;;;12.98;2.40;;;;;;;;;;5052265;28;20518;-61
2024/01/25 12:32:09;;;;;;;13.30;2.35;;;;;;;;;;5051972;28;20024;-60
2024/01/25 12:34:37;;;;;;;14.40;2.15;;;;;;;;;;5046604;28;20021;-60
2024/01/25 12:37:03;;;;;;;12.82;2.63;;;;;;;;;;5052360;28;20386;-60
2024/01/25 12:39:29;;;;;;;11.00;2.53;;;;;;;;;;5051895;28;20502;-61
2024/01/25 12:41:55;;;;;;;10.98;2.38;;;;;;;;;;5051918;28;20029;-59
2024/01/25 12:44:20;;;;;;;11.63;2.15;;;;;;;;;;5051543;28;20028;-61
2024/01/25 12:46:46;;;;;;;19.20;2.13;;;;;;;;;;5052032;28;20087;-60
2024/01/25 12:49:12;;;;;;;9.35;2.03;;;;;;;;;;5051595;28;20060;-60
2024/01/25 12:51:38;;;;;;;11.85;2.13;;;;;;;;;;5051934;28;20108;-60
2024/01/25 12:54:05;;;;;;;14.02;1.73;;;;;;;;;;5051267;28;20025;-60
2024/01/25 12:56:30;;;;;;;12.82;2.05;;;;;;;;;;5051749;28;20478;-59
2024/01/25 12:58:56;;;;;;;14.02;2.85;;;;;;;;;;5051680;28;20025;-60
2024/01/25 13:01:22;;;;;;;16.17;2.70;;;;;;;;;;5051595;28;20060;-60
2024/01/25 13:03:48;;;;;;;10.95;2.33;;;;;;;;;;5051016;28;20383;-59
2024/01/25 13:06:15;;;;;;;10.35;2.53;;;;;;;;;;5033359;28;20040;-60
2024/01/25 13:08:41;;;;;;;9.63;2.10;;;;;;;;;;5051669;28;20407;-60
2024/01/25 13:11:07;;;;;;;8.15;2.03;;;;;;;;;;5050655;28;20072;-59
2024/01/25 13:13:33;;;;;;;10.13;2.00;;;;;;;;;;5053453;28;20440;-60
2024/01/25 13:15:59;;;;;;;17.15;2.20;;;;;;;;;;5071167;28;20037;-59
2024/01/25 13:18:26;;;;;;;13.45;2.30;;;;;;;;;;5069119;28;20466;-59
2024/01/25 13:20:51;;;;;;;14.90;2.55;;;;;;;;;;5059069;28;20478;-59
2024/01/25 13:23:17;;;;;;;10.77;2.13;;;;;;;;;;5070408;28;20111;-60
2024/01/25 13:25:43;;;;;;;10.65;2.10;;;;;;;;;;5063047;28;20482;-60
2024/01/25 13:28:09;;;;;;;10.98;1.73;;;;;;;;;;5068989;28;20020;-60
2024/01/25 13:30:35;;;;;;;11.98;2.70;;;;;;;;;;5070964;28;20029;-60
2024/01/25 13:33:01;;;;;;;20.15;2.40;;;;;;;;;;5071232;28;20022;-58
2024/01/25 13:35:27;;;;;;;18.23;2.67;;;;;;;;;;5070904;28;20390;-51
2024/01/25 13:37:53;;;;;;;16.90;1.80;;;;;;;;;;5070543;28;20024;-56
2024/01/25 13:40:19;;;;;;;13.98;2.08;;;;;;;;;;5057437;28;20031;-58
2024/01/25 13:42:45;;;;;;;15.15;2.40;;;;;;;;;;5068922;28;20021;-59
2024/01/25 13:45:11;;;;;;;11.52;1.90;;;;;;;;;;5057544;28;20077;-60
2024/01/25 13:47:37;;;;;;;11.90;2.85;;;;;;;;;;5069653;28;20035;-60
2024/01/25 13:50:04;;;;;;;16.23;2.30;;;;;;;;;;5069575;28;20048;-60
2024/01/25 13:52:30;;;;;;;14.55;2.40;;;;;;;;;;5069964;28;20050;-58
2024/01/25 13:54:56;;;;;;;8.43;1.80;;;;;;;;;;5066492;28;20040;-60
2024/01/25 13:57:23;;;;;;;10.63;2.25;;;;;;;;;;5059971;28;20021;-60
2024/01/25 13:59:50;;;;;;;17.40;3.00;;;;;;;;;;5068112;28;20089;-60
2024/01/25 14:02:16;;;;;;;15.15;2.03;;;;;;;;;;5070649;28;20502;-59
2024/01/25 14:04:42;;;;;;;16.08;2.45;;;;;;;;;;5070039;28;20032;-59
2024/01/25 14:07:08;;;;;;;22.73;2.85;;;;;;;;;;5061447;28;20467;-60
2024/01/25 14:09:34;;;;;;;13.48;1.90;;;;;;;;;;5070482;28;20425;-59
2024/01/25 14:12:00;;;;;;;14.95;2.88;;;;;;;;;;5066268;28;20024;-60
2024/01/25 14:14:26;;;;;;;15.48;2.60;;;;;;;;;;5065126;28;20036;-57
2024/01/25 14:16:52;;;;;;;12.80;2.30;;;;;;;;;;5044090;28;20139;-59
2024/01/25 14:19:20;;;;;;;15.15;2.42;;;;;;;;;;5070386;28;20016;-60
2024/01/25 14:21:47;;;;;;;12.52;2.30;;;;;;;;;;5070773;28;20027;-59
2024/01/25 14:24:13;;;;;;;13.82;2.55;;;;;;;;;;5069740;28;20032;-60
2024/01/25 14:26:39;;;;;;;24.25;2.67;;;;;;;;;;5068011;28;20024;-58